Nearby METAR Reports

 

CWGT - Sisters Island (Auto)
Distance from station: NE 39km
Updated: 2019-02-22 14:00

 Wind from W
Wind: W 22 km/h
Temperature: 4°C
Wind Chill: -1°C
Dew Point: 1°C
Humidity: 81%
2019/02/22 22:00 CWGT 222200Z AUTO 28012KT 04/01 RMK AO1 SLP110 T00430012 51018
CWGB - Ballenas Island (Auto)
Distance from station: ENE 47km
Updated: 2019-02-22 14:00

 Wind from WNW
Wind: WNW 39 km/h
Temperature: 4°C
Wind Chill: -2°C
Dew Point: 2°C
Humidity: 87%
2019/02/22 22:00 CWGB 222200Z AUTO 29021KT 04/02 RMK AO1 PK WND 28031/2100 SLP104 T00440018 53013
CYQQ - CFB Comox
Distance from station: N 55km
Updated: 2019-02-22 14:00
Few Clouds
Few Clouds
 Wind from NNW
Wind: NNW 7 km/h
Temperature: 6°C
Wind Chill: 4°C
Dew Point: 2°C
Humidity: 76%
Barometer: 1011.2 hPa
Clouds: Few Clouds
Visibility: 32 km
Cloud details: Few Clouds 305 m
Few Clouds 366 m
Few Clouds 457 m
2019/02/22 22:00 CYQQ 222200Z 33004KT 20SM FEW010 FEW012 FEW015 06/02 A2986 RMK SF1SC1CU2 SLP114
 
CYPW - Powell River Airport
Distance from station: NNE 69km
Updated: 2019-02-22 14:00
Few Clouds
Few Clouds
 Wind from varies
Wind: varies 4 km/h
Temperature: 3°C
Dew Point: 2°C
Humidity: 93%
Barometer: 1010.5 hPa
Clouds: Few Clouds
Visibility: 32 km
Cloud details: Few Clouds 244 m
Few Clouds 914 m
2019/02/22 22:00 CYPW 222200Z VRB02KT 20SM FEW008 FEW030 03/02 A2984 RMK CU1SC1 SC TR SHLW BR ON RWY SLP111
CYCD - Nanaimo Airport
Distance from station: ESE 70km
Updated: 2019-02-22 14:00
Partly cloudy
Partly cloudy
 Wind from NNW
Wind: NNW 20 km/h, Gust: 33 km/h
Temperature: 7°C
Wind Chill: 4°C
Dew Point: -1°C
Humidity: 57%
Barometer: 1010.2 hPa
Clouds: Partly cloudy
Visibility: 24 km
Cloud details: Few Clouds 853 m
Partly cloudy 1341 m
2019/02/22 22:00 CYCD 222200Z 34011G18KT 15SM FEW028 SCT044 07/M01 A2983 RMK CF2SC2 SLP104
CYAZ - Tofino Airport
Distance from station: WSW 73km
Updated: 2019-02-22 14:00
Few Clouds
Few Clouds
 Wind from WNW
Wind: WNW 28 km/h, Gust: 41 km/h
Temperature: 7°C
Wind Chill: 3°C
Dew Point: 2°C
Humidity: 71%
Barometer: 1011.5 hPa
Clouds: Few Clouds
Visibility: 24 km
Cloud details: Few Clouds 701 m
Few Clouds 2743 m
2019/02/22 22:00 CYAZ 222200Z 29015G22KT 15SM FEW023 FEW090 07/02 A2987 RMK CU1AC1 AC TR SLP119
 
CWEL - Entrance Island (Auto)
Distance from station: E 73km
Updated: 2019-02-22 14:00

 Wind from N
Wind: N 35 km/h, Gust: 46 km/h
Temperature: 4°C
Wind Chill: -2°C
Dew Point: 2°C
Humidity: 87%
2019/02/22 22:00 CWEL 222200Z AUTO 36019G25KT 04/02 RMK AO1 PK WND 33032/2107 SLP107 T00410019 53017
CYBL - Campbell River Airport
Distance from station: NNW 88km
Updated: 2019-02-22 14:00
Partly cloudy
Partly cloudy
 Wind from WNW
Wind: WNW 9 km/h
Temperature: 6°C
Wind Chill: 4°C
Dew Point: 0°C
Humidity: 66%
Barometer: 1010.2 hPa
Clouds: Partly cloudy
Visibility: 48 km
Cloud details: Few Clouds 610 m
Partly cloudy 2438 m
Partly cloudy 6706 m
2019/02/22 22:00 CYBL 222200Z 29005KT 280V010 30SM FEW020 SCT080 SCT220 06/M00 A2983 RMK SC2AC1CI1 CU ASOCTD SLP108
CWKH - Malahat Highway (Auto)
Distance from station: SE 116km
Updated: 2019-02-22 14:00

 
Temperature: 5°C
Dew Point: 0°C
Humidity: 70%
2019/02/22 22:00 CWKH 222200Z AUTO 05/M00 RMK AO1 SLP090 T00531001 53009
 
CYVR - Vancouver Intl Airport
Distance from station: E 118km
Updated: 2019-02-22 14:27
Mostly cloudy
Mostly cloudy
 Wind from NW
Wind: NW 17 km/h
Temperature: 4°C
Wind Chill: 0°C
Dew Point: 2°C
Humidity: 87%
Barometer: 1010.5 hPa
Clouds: Mostly cloudy
Visibility: 24 km
Cloud details: Few Clouds 244 m
Partly cloudy 366 m
Mostly cloudy 701 m
Mostly cloudy 853 m
2019/02/22 22:27 CYVR 222227Z 31009KT 15SM FEW008 SCT012 BKN023 BKN028 04/02 A2984 RMK CF1CU2SC3SC1 SLP105
CYYJ - Victoria Intl Airport
Distance from station: ESE 120km
Updated: 2019-02-22 14:00
Partly cloudy
Partly cloudy
 Wind from W
Wind: W 11 km/h
Temperature: 7°C
Wind Chill: 5°C
Dew Point: 0°C
Humidity: 61%
Barometer: 1010.5 hPa
Clouds: Partly cloudy
Visibility: 48 km
Cloud details: Few Clouds 671 m
Few Clouds 1158 m
Partly cloudy 1615 m
2019/02/22 22:00 CYYJ 222200Z 28006KT 30SM FEW022 FEW038 SCT053 07/M00 A2984 RMK SC1SC2SC2 SC TR SLP105
CWEB - Estevan Pt. (Auto)
Distance from station: W 129km
Updated: 2019-02-22 14:00

 Wind from NW
Wind: NW 30 km/h
Temperature: 6°C
Wind Chill: 2°C
Dew Point: 0°C
Humidity: 66%
2019/02/22 22:00 CWEB 222200Z AUTO 31016KT 06/M00 RMK AO1 PK WND 32022/2103 SLP124 T00611004 50003
 
CWQK - Race Rocks (Auto)
Distance from station: SE 138km
Updated: 2019-02-22 14:00

 Wind from W
Wind: W 61 km/h, Gust: 70 km/h
Temperature: 7°C
Wind Chill: 1°C
Dew Point: 1°C
Humidity: 66%
2019/02/22 22:00 CWQK 222200Z AUTO 27033G38KT 07/01 RMK AO1 PK WND 27038/2150 SLP100 T00700010 55005
CWAE - Whistler
Distance from station: NE 167km
Updated: 2019-02-22 14:00
Partly cloudy
Partly cloudy
 Wind from S
Wind: S 4 km/h
Temperature: -2°C
Dew Point: -3°C
Humidity: 93%
Barometer: 1007.5 hPa
Clouds: Partly cloudy
Visibility: 24 km
Cloud details: Partly cloudy 1768 m
2019/02/22 22:00 CWAE 222200Z 18002KT 15SM SCT058 M02/M03 A2975 RMK CU3 WND ESTD SLP096
CYZT - Port Hardy Airport
Distance from station: NW 244km
Updated: 2019-02-22 14:06
Light rain, Showers, Mostly cloudy
Light rain, Showers, Mostly cloudy
 Wind from SW
Wind: SW 15 km/h
Temperature: 4°C
Wind Chill: 1°C
Dew Point: 2°C
Humidity: 87%
Barometer: 1010.8 hPa
Summary: Light rain, Showers
Clouds: Mostly cloudy
Visibility: 24 km
Cloud details: Few Clouds 335 m
Mostly cloudy 732 m
Mostly cloudy 1463 m
2019/02/22 22:06 CYZT 222206Z 23008KT 15SM -SHRA FEW011 BKN024TCU BKN048 04/02 A2985 RMK SF1TCU6SC1 SF TR SLP109
 
CWRU - Solander Isl (Auto)
Distance from station: WNW 247km
Updated: 2019-02-22 14:00

 Wind from W
Wind: W 28 km/h
Temperature: 7°C
Wind Chill: 3°C
Dew Point: -1°C
Humidity: 57%
2019/02/22 22:00 CWRU 222200Z AUTO 27015KT 07/M01 RMK AO1 PK WND 27022/2114 SLP113 T00681011 58001